This is the latest recevied weather packets stored in our database for station/object KE6RLG. If no packets are shown the sender has not sent any weather packets the latest 10 day(s).
| Time | Temp. | Humidity | Pressure | Rain* | Wind** | Luminosity | Snow |
|---|---|---|---|---|---|---|---|
| 1777500918 | 18.33° C | 67% | 1015 hPa | 0 mm | - | 748 W/m² | - |
| 1777500318 | 18.89° C | 66% | 1015 hPa | 0 mm | - | 776 W/m² | - |
| 1777498818 | 18.33° C | 66% | 1015.3 hPa | 0 mm | - | 831 W/m² | - |
| 1777497939 | 18.33° C | 66% | 1015.3 hPa | 0 mm | - | 860 W/m² | - |
| 1777497619 | 18.33° C | 68% | 1015.3 hPa | 0 mm | - | 870 W/m² | - |
| 1777495519 | 18.33° C | 66% | 1015.5 hPa | 0 mm | - | 916 W/m² | - |
| 1777494020 | 18.89° C | 64% | 1015.8 hPa | 0 mm | - | 936 W/m² | - |
| 1777493140 | 18.33° C | 68% | 1015.8 hPa | 0 mm | - | 944 W/m² | - |
| 1777492220 | 18.33° C | 67% | 1015.8 hPa | 0 mm | - | 946 W/m² | - |
| 1777488317 | 17.78° C | 72% | 1016.6 hPa | 0 mm | - | 896 W/m² | - |
| 1777487718 | 17.78° C | 70% | 1016.6 hPa | 0 mm | - | 879 W/m² | - |
| 1777485318 | 17.78° C | 66% | 1016.7 hPa | 0 mm | - | 803 W/m² | - |
| 1777484119 | 17.78° C | 65% | 1016.7 hPa | 0 mm | - | 755 W/m² | - |
| 1777481419 | 17.78° C | 65% | 1016.6 hPa | 0 mm | - | 626 W/m² | - |
| 1777481119 | 17.22° C | 64% | 1016.6 hPa | 0 mm | - | 609 W/m² | - |
| 1777480220 | 17.22° C | 66% | 1016.7 hPa | 0 mm | - | 559 W/m² | - |
| 1777478120 | 17.22° C | 56% | 1016.9 hPa | 0 mm | - | 436 W/m² | - |
| 1777475118 | 17.22° C | 55% | 1016.9 hPa | 0 mm | - | 251 W/m² | - |
| 1777474517 | 17.22° C | 54% | 1016.9 hPa | 0 mm | - | 219 W/m² | - |
| 1777473918 | 16.11° C | 58% | 1016.9 hPa | 0 mm | - | 188 W/m² | - |
| 1777473638 | 16.11° C | 60% | 1016.8 hPa | 0 mm | - | 172 W/m² | - |
| 1777473318 | 16.11° C | 61% | 1016.8 hPa | 0 mm | - | 157 W/m² | - |
| 1777470924 | 11.11° C | 81% | 1016.9 hPa | 0 mm | - | 57 W/m² | - |
| 1777469725 | 10° C | 81% | 1016.9 hPa | 0 mm | - | 22 W/m² | - |
| 1777469424 | 10° C | 81% | 1016.9 hPa | 0 mm | - | 17 W/m² | - |
* Rain latest hour (hover to see other rain measurements)
** Current wind speed in m/s (hover to see current wind gust speed)